Language selection

Weather shortcuts

Southwestern Grand Banks: Past 24 Hour Conditions

 

Banquereau - 44139

11:00 PM ADT 19 May 2024Buoy position: 44.27N 57.08W
Disclaimer

This table is a summary of hourly weather conditions for the past 24 hours.
Please note that these observations might not always be representative of weather conditions over their associated marine area.

Date / Time
(ADT)
Wind(knots) Wave height(m) Wave period(s) Pressure(kPa) Air tempC) Water tempC)
19 May 2024
23:00 ENE 23 gusts 27 2.47 7.7 101.9 7 9
22:00 ENE 22 gusts 27 2.45 8.0 102.0 7 9
21:00 E 23 gusts 28 2.67 7.7 101.9 7 8
20:00 ENE 23 gusts 28 2.74 8.3 101.9 7 8
19:00 E 23 gusts 29 3.09 7.7 102.0 7 7
18:00 E 25 gusts 30 2.85 8.3 102.0 7 8
17:00 ENE 23 gusts 29 2.96 8.0 102.0 7 8
16:00 E 27 gusts 33 2.65 7.1 102.0 7 9
15:00 E 26 gusts 31 2.75 8.0 102.0 7 9
14:00 E 25 gusts 30 2.84 7.7 102.1 7 9
13:00 ENE 25 gusts 30 2.81 8.0 102.1 7 8
12:00 ENE 23 gusts 29 2.80 8.0 102.1 7 8
11:00 E 26 gusts 31 2.43 7.4 102.1 7 8
10:00 ENE 23 gusts 28 2.44 6.9 102.1 7 8
9:00 ENE 23 gusts 28 2.37 6.7 102.2 7 8
8:00 E 22 gusts 26 2.25 6.7 102.1 7 8
7:00 E 24 gusts 30 2.11 6.5 102.1 7 8
6:00 E 23 gusts 28 1.94 6.5 102.0 7 8
5:00 ENE 22 gusts 26 1.95 5.9 102.0 7 9
4:00 ENE 21 gusts 26 1.74 6.1 102.0 7 9
3:00 E 21 gusts 24 1.88 6.1 102.1 8 9
2:00 ENE 20 gusts 24 1.81 5.9 102.1 7 8
1:00 ENE 21 gusts 25 1.80 5.6 102.1 7 8
0:00 ENE 20 gusts 24 1.70 5.9 102.2 7 8
18 May 2024
23:00 E 19 gusts 23 1.68 5.9 102.2 7 8

Zoom-in to make a selection

Map of Atlantic - Newfoundland marine weather areas Banquereau - 44139 East Chedabucto Bay – 44488 West Chedabucto Bay – 44489 Blanc-Sablon Airport Cap Whittle Chevery Natashquan Airport Heath Point Îles de la Madeleine Airport Miscou Island Eskasoni (First Nations) Grand Étang Ingonish Beach North Mountain St.Paul Island J.A. Douglas McCurdy Sydney Airport Charlottetown Airport East Point North Cape Argentia Berry Hill Bonavista Burgeo Cape Race Corner Brook Daniel's Harbour Englee Ferolle Point La Scie Port aux Basques Sagona Island St. Anthony Airport St. John's Int'l Airport St. Lawrence Stephenville Airport Twillingate Winterland Branch Hill Wreckhouse Grates Cove Pool's Island Marticot Island Long Pond Cartwright Airport Mary's Harbour
Legend:
buoy Buoy
land station Land Station

Atlantic - Newfoundland Area

Another Region

Date modified: